sensor_id;sensor_type;location;lat;lon;timestamp;noise_LAeq;noise_LA_min;noise_LA_max;noise_LA01;noise_LA95
72466;Laerm;60471;52.150;4.508;2023-08-17T00:00:45;57.07;37.22;69.39;;
72466;Laerm;60471;52.150;4.508;2023-08-17T00:03:12;56.80;38.37;69.38;;
72466;Laerm;60471;52.150;4.508;2023-08-17T00:05:40;56.51;37.26;68.52;;
72466;Laerm;60471;52.150;4.508;2023-08-17T00:08:06;57.03;39.73;69.46;;
72466;Laerm;60471;52.150;4.508;2023-08-17T00:10:33;57.04;40.16;68.75;;
72466;Laerm;60471;52.150;4.508;2023-08-17T00:12:59;56.66;36.92;69.28;;
72466;Laerm;60471;52.150;4.508;2023-08-17T00:15:25;57.12;37.03;69.35;;
72466;Laerm;60471;52.150;4.508;2023-08-17T00:17:51;56.95;36.76;69.35;;
72466;Laerm;60471;52.150;4.508;2023-08-17T00:20:18;56.79;36.05;70.25;;
72466;Laerm;60471;52.150;4.508;2023-08-17T00:22:44;57.08;36.89;69.32;;
72466;Laerm;60471;52.150;4.508;2023-08-17T00:25:10;57.43;36.56;69.62;;
72466;Laerm;60471;52.150;4.508;2023-08-17T00:27:36;57.01;36.59;69.06;;
72466;Laerm;60471;52.150;4.508;2023-08-17T00:30:04;56.88;36.85;69.10;;
72466;Laerm;60471;52.150;4.508;2023-08-17T00:32:30;56.82;35.78;69.38;;
72466;Laerm;60471;52.150;4.508;2023-08-17T00:34:56;57.04;35.89;69.06;;
72466;Laerm;60471;52.150;4.508;2023-08-17T00:37:22;56.77;36.93;69.15;;
72466;Laerm;60471;52.150;4.508;2023-08-17T00:39:49;56.96;37.27;69.73;;
72466;Laerm;60471;52.150;4.508;2023-08-17T00:42:15;57.06;36.05;69.05;;
72466;Laerm;60471;52.150;4.508;2023-08-17T00:44:41;56.86;37.66;70.15;;
72466;Laerm;60471;52.150;4.508;2023-08-17T00:47:07;56.68;38.20;68.78;;
72466;Laerm;60471;52.150;4.508;2023-08-17T00:49:34;56.77;38.03;69.15;;
72466;Laerm;60471;52.150;4.508;2023-08-17T00:52:02;57.21;36.83;69.59;;
72466;Laerm;60471;52.150;4.508;2023-08-17T00:54:31;57.15;39.30;70.09;;
72466;Laerm;60471;52.150;4.508;2023-08-17T00:56:58;56.96;38.30;68.85;;
72466;Laerm;60471;52.150;4.508;2023-08-17T00:59:26;57.38;38.72;69.73;;
72466;Laerm;60471;52.150;4.508;2023-08-17T01:01:52;56.67;37.87;69.15;;
72466;Laerm;60471;52.150;4.508;2023-08-17T01:04:18;56.89;37.65;69.19;;
72466;Laerm;60471;52.150;4.508;2023-08-17T01:06:44;57.05;37.07;69.26;;
72466;Laerm;60471;52.150;4.508;2023-08-17T01:09:11;56.79;36.94;69.30;;
72466;Laerm;60471;52.150;4.508;2023-08-17T01:17:43;56.59;37.28;69.57;;
72466;Laerm;60471;52.150;4.508;2023-08-17T01:20:12;56.98;36.64;69.29;;
72466;Laerm;60471;52.150;4.508;2023-08-17T01:22:45;57.23;38.61;69.68;;
72466;Laerm;60471;52.150;4.508;2023-08-17T01:25:14;57.19;36.60;70.00;;
72466;Laerm;60471;52.150;4.508;2023-08-17T01:27:43;56.96;35.82;69.28;;
72466;Laerm;60471;52.150;4.508;2023-08-17T01:30:16;56.68;38.08;69.21;;
72466;Laerm;60471;52.150;4.508;2023-08-17T01:38:07;56.81;37.56;69.59;;
72466;Laerm;60471;52.150;4.508;2023-08-17T01:40:36;57.46;37.18;70.10;;
72466;Laerm;60471;52.150;4.508;2023-08-17T01:43:03;57.82;37.59;69.56;;
72466;Laerm;60471;52.150;4.508;2023-08-17T01:45:30;57.28;37.28;69.94;;
72466;Laerm;60471;52.150;4.508;2023-08-17T01:47:56;57.36;37.71;69.68;;
72466;Laerm;60471;52.150;4.508;2023-08-17T01:50:22;57.60;36.30;70.18;;
72466;Laerm;60471;52.150;4.508;2023-08-17T01:52:48;57.33;35.49;70.07;;
72466;Laerm;60471;52.150;4.508;2023-08-17T01:55:17;57.55;36.97;71.33;;
72466;Laerm;60471;52.150;4.508;2023-08-17T01:57:43;57.82;36.34;69.82;;
72466;Laerm;60471;52.150;4.508;2023-08-17T02:00:10;57.61;36.50;70.87;;
72466;Laerm;60471;52.150;4.508;2023-08-17T02:02:36;57.61;36.56;70.25;;
72466;Laerm;60471;52.150;4.508;2023-08-17T02:05:03;57.11;36.85;69.28;;
72466;Laerm;60471;52.150;4.508;2023-08-17T02:07:29;57.41;36.10;69.63;;
72466;Laerm;60471;52.150;4.508;2023-08-17T02:09:55;57.73;36.57;70.62;;
72466;Laerm;60471;52.150;4.508;2023-08-17T02:12:22;57.87;37.23;70.35;;
72466;Laerm;60471;52.150;4.508;2023-08-17T02:14:48;57.56;37.04;69.55;;
72466;Laerm;60471;52.150;4.508;2023-08-17T02:17:14;57.68;36.49;70.20;;
72466;Laerm;60471;52.150;4.508;2023-08-17T02:19:43;57.62;36.97;70.87;;
72466;Laerm;60471;52.150;4.508;2023-08-17T02:22:09;57.12;37.19;69.16;;
72466;Laerm;60471;52.150;4.508;2023-08-17T02:24:36;57.29;37.57;70.47;;
72466;Laerm;60471;52.150;4.508;2023-08-17T02:27:02;57.98;38.24;70.65;;
72466;Laerm;60471;52.150;4.508;2023-08-17T02:29:29;57.46;36.84;69.63;;
72466;Laerm;60471;52.150;4.508;2023-08-17T02:31:55;57.42;36.45;69.85;;
72466;Laerm;60471;52.150;4.508;2023-08-17T02:34:21;57.52;37.09;69.90;;
72466;Laerm;60471;52.150;4.508;2023-08-17T02:36:47;57.51;38.57;70.04;;
72466;Laerm;60471;52.150;4.508;2023-08-17T02:39:14;57.50;38.71;69.30;;
72466;Laerm;60471;52.150;4.508;2023-08-17T02:41:40;57.20;37.25;69.17;;
72466;Laerm;60471;52.150;4.508;2023-08-17T02:44:06;57.57;37.85;69.18;;
72466;Laerm;60471;52.150;4.508;2023-08-17T02:46:33;57.85;38.76;69.98;;
72466;Laerm;60471;52.150;4.508;2023-08-17T02:48:59;57.83;38.93;69.50;;
72466;Laerm;60471;52.150;4.508;2023-08-17T02:51:25;57.68;38.60;69.77;;
72466;Laerm;60471;52.150;4.508;2023-08-17T02:53:51;57.52;37.04;70.09;;
72466;Laerm;60471;52.150;4.508;2023-08-17T02:56:17;57.83;37.35;70.61;;
72466;Laerm;60471;52.150;4.508;2023-08-17T02:58:44;57.94;37.75;69.71;;
72466;Laerm;60471;52.150;4.508;2023-08-17T03:01:10;57.50;36.98;69.99;;
72466;Laerm;60471;52.150;4.508;2023-08-17T03:03:36;57.42;36.14;69.68;;
72466;Laerm;60471;52.150;4.508;2023-08-17T03:06:03;57.38;37.59;70.65;;
72466;Laerm;60471;52.150;4.508;2023-08-17T03:08:29;57.59;37.27;69.34;;
72466;Laerm;60471;52.150;4.508;2023-08-17T03:10:55;58.09;36.67;70.06;;
72466;Laerm;60471;52.150;4.508;2023-08-17T03:13:21;58.13;37.06;70.19;;
72466;Laerm;60471;52.150;4.508;2023-08-17T03:15:48;57.94;37.33;70.72;;
72466;Laerm;60471;52.150;4.508;2023-08-17T03:18:14;57.77;37.10;70.35;;
72466;Laerm;60471;52.150;4.508;2023-08-17T03:20:40;58.12;37.09;69.88;;
72466;Laerm;60471;52.150;4.508;2023-08-17T03:23:06;58.03;37.12;70.86;;
72466;Laerm;60471;52.150;4.508;2023-08-17T03:25:34;57.56;37.54;70.57;;
72466;Laerm;60471;52.150;4.508;2023-08-17T03:28:01;58.14;38.28;69.73;;
72466;Laerm;60471;52.150;4.508;2023-08-17T03:30:27;57.58;38.77;69.45;;
72466;Laerm;60471;52.150;4.508;2023-08-17T03:32:53;58.10;38.16;70.19;;
72466;Laerm;60471;52.150;4.508;2023-08-17T03:35:19;58.23;39.25;69.64;;
72466;Laerm;60471;52.150;4.508;2023-08-17T03:37:45;57.98;40.27;70.80;;
72466;Laerm;60471;52.150;4.508;2023-08-17T03:40:12;58.04;38.99;70.14;;
72466;Laerm;60471;52.150;4.508;2023-08-17T03:42:38;58.60;39.14;70.77;;
72466;Laerm;60471;52.150;4.508;2023-08-17T03:45:05;58.63;40.00;69.94;;
72466;Laerm;60471;52.150;4.508;2023-08-17T03:47:31;58.11;38.58;70.29;;
72466;Laerm;60471;52.150;4.508;2023-08-17T03:49:57;57.92;39.11;70.23;;
72466;Laerm;60471;52.150;4.508;2023-08-17T03:52:24;57.88;39.87;69.77;;
72466;Laerm;60471;52.150;4.508;2023-08-17T03:54:50;58.28;40.36;70.54;;
72466;Laerm;60471;52.150;4.508;2023-08-17T03:57:16;57.89;39.65;70.22;;
72466;Laerm;60471;52.150;4.508;2023-08-17T03:59:42;58.36;40.46;71.31;;
72466;Laerm;60471;52.150;4.508;2023-08-17T04:02:08;57.90;39.40;69.87;;
72466;Laerm;60471;52.150;4.508;2023-08-17T04:04:35;58.71;39.69;70.03;;
72466;Laerm;60471;52.150;4.508;2023-08-17T04:07:01;58.21;39.89;70.37;;
72466;Laerm;60471;52.150;4.508;2023-08-17T04:09:27;58.36;41.48;70.49;;
72466;Laerm;60471;52.150;4.508;2023-08-17T04:11:53;58.52;39.18;70.18;;
72466;Laerm;60471;52.150;4.508;2023-08-17T04:14:20;58.80;40.17;70.33;;
72466;Laerm;60471;52.150;4.508;2023-08-17T04:16:52;57.94;41.58;69.90;;
72466;Laerm;60471;52.150;4.508;2023-08-17T04:19:18;58.21;41.49;70.49;;
72466;Laerm;60471;52.150;4.508;2023-08-17T04:21:44;58.25;40.05;70.73;;
72466;Laerm;60471;52.150;4.508;2023-08-17T04:24:10;58.74;41.00;71.08;;
72466;Laerm;60471;52.150;4.508;2023-08-17T04:26:37;58.30;40.72;70.09;;
72466;Laerm;60471;52.150;4.508;2023-08-17T04:29:04;58.66;41.41;70.32;;
72466;Laerm;60471;52.150;4.508;2023-08-17T04:31:30;58.49;39.58;70.45;;
72466;Laerm;60471;52.150;4.508;2023-08-17T04:33:57;58.30;39.74;70.22;;
72466;Laerm;60471;52.150;4.508;2023-08-17T04:36:23;58.42;41.75;69.54;;
72466;Laerm;60471;52.150;4.508;2023-08-17T04:38:49;58.43;40.94;69.93;;
72466;Laerm;60471;52.150;4.508;2023-08-17T04:41:16;58.81;40.75;71.03;;
72466;Laerm;60471;52.150;4.508;2023-08-17T04:43:42;59.51;41.77;70.93;;
72466;Laerm;60471;52.150;4.508;2023-08-17T04:46:09;58.56;41.30;70.12;;
72466;Laerm;60471;52.150;4.508;2023-08-17T04:48:35;58.62;41.66;70.88;;
72466;Laerm;60471;52.150;4.508;2023-08-17T04:51:01;58.63;41.22;70.44;;
72466;Laerm;60471;52.150;4.508;2023-08-17T04:53:28;59.24;41.98;70.62;;
72466;Laerm;60471;52.150;4.508;2023-08-17T04:55:54;58.89;41.17;70.02;;
72466;Laerm;60471;52.150;4.508;2023-08-17T04:58:20;58.94;40.86;70.22;;
72466;Laerm;60471;52.150;4.508;2023-08-17T05:00:48;58.99;41.70;70.64;;
72466;Laerm;60471;52.150;4.508;2023-08-17T05:03:14;58.88;41.05;70.73;;
72466;Laerm;60471;52.150;4.508;2023-08-17T05:05:40;59.31;42.45;71.02;;
72466;Laerm;60471;52.150;4.508;2023-08-17T05:08:07;58.46;41.10;70.09;;
72466;Laerm;60471;52.150;4.508;2023-08-17T05:10:33;58.97;41.07;71.34;;
72466;Laerm;60471;52.150;4.508;2023-08-17T05:12:59;59.65;39.94;71.24;;
72466;Laerm;60471;52.150;4.508;2023-08-17T05:15:25;59.51;45.13;70.25;;
72466;Laerm;60471;52.150;4.508;2023-08-17T05:17:52;59.33;40.57;70.64;;
72466;Laerm;60471;52.150;4.508;2023-08-17T05:20:18;60.19;42.57;70.44;;
72466;Laerm;60471;52.150;4.508;2023-08-17T05:22:47;58.33;40.02;71.78;;
72466;Laerm;60471;52.150;4.508;2023-08-17T05:25:13;59.61;40.47;70.72;;
72466;Laerm;60471;52.150;4.508;2023-08-17T05:27:40;59.02;43.70;70.73;;
72466;Laerm;60471;52.150;4.508;2023-08-17T05:30:07;58.88;39.86;70.79;;
72466;Laerm;60471;52.150;4.508;2023-08-17T05:32:33;58.61;41.30;70.20;;
72466;Laerm;60471;52.150;4.508;2023-08-17T05:34:59;58.57;40.33;70.94;;
72466;Laerm;60471;52.150;4.508;2023-08-17T05:37:25;59.40;42.91;71.00;;
72466;Laerm;60471;52.150;4.508;2023-08-17T05:39:52;59.18;44.28;70.12;;
72466;Laerm;60471;52.150;4.508;2023-08-17T05:42:18;58.53;40.71;69.52;;
72466;Laerm;60471;52.150;4.508;2023-08-17T05:44:44;59.08;41.94;70.70;;
72466;Laerm;60471;52.150;4.508;2023-08-17T05:47:11;58.75;42.39;70.19;;
72466;Laerm;60471;52.150;4.508;2023-08-17T05:49:38;59.06;40.86;69.92;;
72466;Laerm;60471;52.150;4.508;2023-08-17T05:52:05;58.88;42.87;70.17;;
72466;Laerm;60471;52.150;4.508;2023-08-17T05:54:31;59.10;41.37;70.23;;
72466;Laerm;60471;52.150;4.508;2023-08-17T05:56:57;59.26;42.83;71.31;;
72466;Laerm;60471;52.150;4.508;2023-08-17T05:59:24;58.31;39.82;69.85;;
72466;Laerm;60471;52.150;4.508;2023-08-17T06:01:50;57.71;39.58;69.82;;
72466;Laerm;60471;52.150;4.508;2023-08-17T06:04:16;58.25;41.73;69.42;;
72466;Laerm;60471;52.150;4.508;2023-08-17T06:06:42;58.85;42.79;69.76;;
72466;Laerm;60471;52.150;4.508;2023-08-17T06:09:09;58.32;43.91;69.10;;
72466;Laerm;60471;52.150;4.508;2023-08-17T06:11:35;58.70;41.90;69.77;;
72466;Laerm;60471;52.150;4.508;2023-08-17T06:14:02;58.53;41.38;68.96;;
72466;Laerm;60471;52.150;4.508;2023-08-17T06:16:28;58.46;41.43;70.07;;
72466;Laerm;60471;52.150;4.508;2023-08-17T06:18:54;57.88;43.59;68.90;;
72466;Laerm;60471;52.150;4.508;2023-08-17T06:21:20;58.69;44.73;69.14;;
72466;Laerm;60471;52.150;4.508;2023-08-17T06:23:46;61.08;43.50;73.05;;
72466;Laerm;60471;52.150;4.508;2023-08-17T06:26:13;58.20;42.22;69.23;;
72466;Laerm;60471;52.150;4.508;2023-08-17T06:28:39;58.58;43.36;69.32;;
72466;Laerm;60471;52.150;4.508;2023-08-17T06:31:05;57.99;41.76;75.39;;
72466;Laerm;60471;52.150;4.508;2023-08-17T06:33:32;58.82;43.59;71.22;;
72466;Laerm;60471;52.150;4.508;2023-08-17T06:35:58;58.68;42.63;74.46;;
72466;Laerm;60471;52.150;4.508;2023-08-17T06:38:24;58.59;41.95;70.20;;
72466;Laerm;60471;52.150;4.508;2023-08-17T06:40:52;58.08;42.56;69.61;;
72466;Laerm;60471;52.150;4.508;2023-08-17T06:43:18;58.91;41.07;69.10;;
72466;Laerm;60471;52.150;4.508;2023-08-17T06:45:46;58.11;41.57;69.67;;
72466;Laerm;60471;52.150;4.508;2023-08-17T06:48:13;58.53;41.03;69.60;;
72466;Laerm;60471;52.150;4.508;2023-08-17T06:50:39;58.65;40.21;69.61;;
72466;Laerm;60471;52.150;4.508;2023-08-17T06:53:05;58.34;40.87;69.71;;
72466;Laerm;60471;52.150;4.508;2023-08-17T06:55:31;59.07;44.22;69.90;;
72466;Laerm;60471;52.150;4.508;2023-08-17T06:57:57;58.74;42.48;69.12;;
72466;Laerm;60471;52.150;4.508;2023-08-17T07:00:24;58.15;43.13;69.35;;
72466;Laerm;60471;52.150;4.508;2023-08-17T07:02:50;58.12;40.62;69.78;;
72466;Laerm;60471;52.150;4.508;2023-08-17T07:05:17;58.05;43.61;69.55;;
72466;Laerm;60471;52.150;4.508;2023-08-17T07:07:44;57.46;41.75;69.35;;
72466;Laerm;60471;52.150;4.508;2023-08-17T07:10:11;57.80;42.74;68.95;;
72466;Laerm;60471;52.150;4.508;2023-08-17T07:12:38;58.88;42.44;69.07;;
72466;Laerm;60471;52.150;4.508;2023-08-17T07:15:05;58.85;43.11;69.30;;
72466;Laerm;60471;52.150;4.508;2023-08-17T07:17:32;57.87;43.62;69.02;;
72466;Laerm;60471;52.150;4.508;2023-08-17T07:20:00;58.41;46.65;69.50;;
72466;Laerm;60471;52.150;4.508;2023-08-17T07:22:26;57.81;44.09;69.18;;
72466;Laerm;60471;52.150;4.508;2023-08-17T07:24:52;57.42;41.69;68.48;;
72466;Laerm;60471;52.150;4.508;2023-08-17T07:27:18;58.31;43.91;68.77;;
72466;Laerm;60471;52.150;4.508;2023-08-17T07:29:44;57.82;44.01;68.10;;
72466;Laerm;60471;52.150;4.508;2023-08-17T07:32:11;57.64;46.17;67.65;;
72466;Laerm;60471;52.150;4.508;2023-08-17T07:34:37;57.44;44.87;67.76;;
72466;Laerm;60471;52.150;4.508;2023-08-17T07:37:04;58.54;45.54;68.40;;
72466;Laerm;60471;52.150;4.508;2023-08-17T07:39:32;57.73;45.08;67.32;;
72466;Laerm;60471;52.150;4.508;2023-08-17T07:41:59;57.72;43.25;68.46;;
72466;Laerm;60471;52.150;4.508;2023-08-17T07:44:25;58.83;47.97;68.35;;
72466;Laerm;60471;52.150;4.508;2023-08-17T07:46:51;58.57;46.63;68.51;;
72466;Laerm;60471;52.150;4.508;2023-08-17T07:49:18;58.07;45.05;68.05;;
72466;Laerm;60471;52.150;4.508;2023-08-17T07:51:44;58.72;45.41;68.56;;
72466;Laerm;60471;52.150;4.508;2023-08-17T07:54:11;57.78;43.62;68.41;;
72466;Laerm;60471;52.150;4.508;2023-08-17T07:56:37;56.59;42.14;67.21;;
72466;Laerm;60471;52.150;4.508;2023-08-17T07:59:03;58.01;45.27;69.11;;
72466;Laerm;60471;52.150;4.508;2023-08-17T08:01:29;57.26;44.51;67.96;;
72466;Laerm;60471;52.150;4.508;2023-08-17T08:03:55;57.77;45.65;72.46;;
72466;Laerm;60471;52.150;4.508;2023-08-17T08:06:22;57.83;47.05;66.87;;
72466;Laerm;60471;52.150;4.508;2023-08-17T08:08:49;57.83;44.27;68.46;;
72466;Laerm;60471;52.150;4.508;2023-08-17T08:11:15;58.96;47.27;68.63;;
72466;Laerm;60471;52.150;4.508;2023-08-17T08:13:41;58.22;45.94;70.20;;
72466;Laerm;60471;52.150;4.508;2023-08-17T08:16:07;58.61;45.02;67.45;;
72466;Laerm;60471;52.150;4.508;2023-08-17T08:18:36;57.74;45.71;69.00;;
72466;Laerm;60471;52.150;4.508;2023-08-17T08:21:02;57.43;47.94;67.22;;
72466;Laerm;60471;52.150;4.508;2023-08-17T08:23:28;58.27;47.60;67.95;;
72466;Laerm;60471;52.150;4.508;2023-08-17T08:25:55;56.17;43.07;66.52;;
72466;Laerm;60471;52.150;4.508;2023-08-17T08:28:21;56.42;43.27;67.51;;
72466;Laerm;60471;52.150;4.508;2023-08-17T08:30:48;58.95;44.29;83.21;;
72466;Laerm;60471;52.150;4.508;2023-08-17T08:33:14;60.77;44.15;75.11;;
72466;Laerm;60471;52.150;4.508;2023-08-17T08:35:40;58.78;44.66;68.91;;
72466;Laerm;60471;52.150;4.508;2023-08-17T08:38:06;58.03;47.78;68.45;;
72466;Laerm;60471;52.150;4.508;2023-08-17T08:40:33;56.55;46.13;66.46;;
72466;Laerm;60471;52.150;4.508;2023-08-17T08:43:03;59.17;48.58;68.55;;
72466;Laerm;60471;52.150;4.508;2023-08-17T08:45:30;56.99;45.69;67.73;;
72466;Laerm;60471;52.150;4.508;2023-08-17T08:48:00;57.22;43.23;66.38;;
72466;Laerm;60471;52.150;4.508;2023-08-17T08:50:31;56.64;46.85;66.45;;
72466;Laerm;60471;52.150;4.508;2023-08-17T08:53:02;60.23;45.46;73.42;;
72466;Laerm;60471;52.150;4.508;2023-08-17T08:55:37;56.73;46.42;69.32;;
72466;Laerm;60471;52.150;4.508;2023-08-17T08:58:06;58.12;44.88;68.97;;
72466;Laerm;60471;52.150;4.508;2023-08-17T09:00:34;58.53;47.33;69.53;;
72466;Laerm;60471;52.150;4.508;2023-08-17T09:03:03;58.06;48.32;66.58;;
72466;Laerm;60471;52.150;4.508;2023-08-17T09:05:32;58.25;45.31;73.62;;
72466;Laerm;60471;52.150;4.508;2023-08-17T09:08:01;57.91;45.18;72.48;;
72466;Laerm;60471;52.150;4.508;2023-08-17T09:10:28;58.44;47.70;68.69;;
72466;Laerm;60471;52.150;4.508;2023-08-17T09:12:55;58.18;45.38;67.71;;
72466;Laerm;60471;52.150;4.508;2023-08-17T09:15:21;58.28;46.35;68.32;;
72466;Laerm;60471;52.150;4.508;2023-08-17T09:17:48;55.98;44.01;65.93;;
72466;Laerm;60471;52.150;4.508;2023-08-17T09:20:44;55.71;43.86;67.15;;
72466;Laerm;60471;52.150;4.508;2023-08-17T09:25:44;58.49;44.31;68.25;;
72466;Laerm;60471;52.150;4.508;2023-08-17T09:28:13;57.33;44.86;67.12;;
72466;Laerm;60471;52.150;4.508;2023-08-17T09:31:02;57.35;45.76;66.40;;
72466;Laerm;60471;52.150;4.508;2023-08-17T09:33:32;57.36;44.22;68.23;;
72466;Laerm;60471;52.150;4.508;2023-08-17T09:35:59;57.41;45.95;66.56;;
72466;Laerm;60471;52.150;4.508;2023-08-17T09:38:27;58.28;49.90;66.78;;
72466;Laerm;60471;52.150;4.508;2023-08-17T09:40:53;58.13;47.64;67.91;;
72466;Laerm;60471;52.150;4.508;2023-08-17T09:43:20;58.38;47.47;68.34;;
72466;Laerm;60471;52.150;4.508;2023-08-17T09:45:48;59.71;48.48;68.98;;
72466;Laerm;60471;52.150;4.508;2023-08-17T09:48:17;57.55;45.70;66.75;;
72466;Laerm;60471;52.150;4.508;2023-08-17T09:50:46;57.35;48.13;65.98;;
72466;Laerm;60471;52.150;4.508;2023-08-17T09:53:18;57.56;45.66;68.94;;
72466;Laerm;60471;52.150;4.508;2023-08-17T09:55:46;58.98;47.23;68.41;;
72466;Laerm;60471;52.150;4.508;2023-08-17T09:58:13;57.70;47.42;67.83;;
72466;Laerm;60471;52.150;4.508;2023-08-17T10:00:46;55.92;47.15;65.59;;
72466;Laerm;60471;52.150;4.508;2023-08-17T10:03:14;57.01;47.01;67.93;;
72466;Laerm;60471;52.150;4.508;2023-08-17T10:05:44;58.67;46.57;75.97;;
72466;Laerm;60471;52.150;4.508;2023-08-17T10:08:19;57.77;45.36;68.32;;
72466;Laerm;60471;52.150;4.508;2023-08-17T10:10:47;57.94;43.78;68.12;;
72466;Laerm;60471;52.150;4.508;2023-08-17T10:16:24;57.97;46.07;68.63;;
72466;Laerm;60471;52.150;4.508;2023-08-17T10:19:18;58.47;49.88;67.79;;
72466;Laerm;60471;52.150;4.508;2023-08-17T10:21:58;56.99;45.52;65.48;;
72466;Laerm;60471;52.150;4.508;2023-08-17T10:24:27;57.09;46.17;66.06;;
72466;Laerm;60471;52.150;4.508;2023-08-17T10:26:55;58.33;48.04;67.56;;
72466;Laerm;60471;52.150;4.508;2023-08-17T10:29:23;56.37;46.10;74.59;;
72466;Laerm;60471;52.150;4.508;2023-08-17T10:31:50;57.81;47.55;66.25;;
72466;Laerm;60471;52.150;4.508;2023-08-17T10:34:17;57.13;45.08;66.33;;
72466;Laerm;60471;52.150;4.508;2023-08-17T10:36:45;59.27;48.44;76.78;;
72466;Laerm;60471;52.150;4.508;2023-08-17T10:41:51;56.54;46.24;72.28;;
72466;Laerm;60471;52.150;4.508;2023-08-17T10:44:37;55.31;47.10;65.09;;
72466;Laerm;60471;52.150;4.508;2023-08-17T10:52:34;57.01;42.72;65.35;;
72466;Laerm;60471;52.150;4.508;2023-08-17T10:55:05;57.54;45.54;63.92;;
72466;Laerm;60471;52.150;4.508;2023-08-17T10:57:40;56.21;44.75;64.28;;
72466;Laerm;60471;52.150;4.508;2023-08-17T11:00:23;56.38;44.46;64.60;;
72466;Laerm;60471;52.150;4.508;2023-08-17T11:02:57;55.98;45.19;64.36;;
72466;Laerm;60471;52.150;4.508;2023-08-17T11:05:46;55.63;43.78;64.50;;
72466;Laerm;60471;52.150;4.508;2023-08-17T11:08:38;55.52;43.55;65.99;;
72466;Laerm;60471;52.150;4.508;2023-08-17T11:11:11;57.17;45.44;65.73;;
72466;Laerm;60471;52.150;4.508;2023-08-17T11:13:40;57.35;47.14;68.18;;
72466;Laerm;60471;52.150;4.508;2023-08-17T11:16:09;55.87;43.29;79.63;;
72466;Laerm;60471;52.150;4.508;2023-08-17T11:18:36;56.34;44.23;66.77;;
72466;Laerm;60471;52.150;4.508;2023-08-17T11:21:04;55.12;47.05;69.56;;
72466;Laerm;60471;52.150;4.508;2023-08-17T11:23:33;57.22;47.28;73.30;;
72466;Laerm;60471;52.150;4.508;2023-08-17T11:26:01;56.15;46.45;64.65;;
72466;Laerm;60471;52.150;4.508;2023-08-17T11:28:30;55.96;46.25;63.98;;
72466;Laerm;60471;52.150;4.508;2023-08-17T11:31:08;56.52;45.12;65.00;;
72466;Laerm;60471;52.150;4.508;2023-08-17T11:33:37;55.12;43.55;63.33;;
72466;Laerm;60471;52.150;4.508;2023-08-17T11:36:07;54.92;44.34;67.00;;
72466;Laerm;60471;52.150;4.508;2023-08-17T11:38:42;57.77;48.29;65.09;;
72466;Laerm;60471;52.150;4.508;2023-08-17T11:41:10;55.57;43.73;66.62;;
72466;Laerm;60471;52.150;4.508;2023-08-17T11:43:37;56.04;44.72;63.97;;
72466;Laerm;60471;52.150;4.508;2023-08-17T11:46:04;56.94;46.55;64.93;;
72466;Laerm;60471;52.150;4.508;2023-08-17T11:48:31;57.11;48.30;64.62;;
72466;Laerm;60471;52.150;4.508;2023-08-17T11:50:57;55.91;46.85;68.74;;
72466;Laerm;60471;52.150;4.508;2023-08-17T11:53:24;55.69;44.97;64.30;;
72466;Laerm;60471;52.150;4.508;2023-08-17T11:55:51;56.96;46.14;64.21;;
72466;Laerm;60471;52.150;4.508;2023-08-17T11:58:31;55.99;46.21;63.21;;
72466;Laerm;60471;52.150;4.508;2023-08-17T12:01:01;56.42;47.85;68.99;;
72466;Laerm;60471;52.150;4.508;2023-08-17T12:03:28;55.57;46.14;63.27;;
72466;Laerm;60471;52.150;4.508;2023-08-17T12:05:55;56.01;44.39;65.88;;
72466;Laerm;60471;52.150;4.508;2023-08-17T12:08:21;55.41;45.65;64.65;;
72466;Laerm;60471;52.150;4.508;2023-08-17T12:10:48;56.17;44.53;65.32;;
72466;Laerm;60471;52.150;4.508;2023-08-17T12:13:14;55.33;45.76;65.04;;
72466;Laerm;60471;52.150;4.508;2023-08-17T12:15:40;55.44;44.55;63.15;;
72466;Laerm;60471;52.150;4.508;2023-08-17T12:18:08;56.16;47.04;64.84;;
72466;Laerm;60471;52.150;4.508;2023-08-17T12:20:34;54.84;44.73;64.01;;
72466;Laerm;60471;52.150;4.508;2023-08-17T12:23:03;53.91;43.96;62.68;;
72466;Laerm;60471;52.150;4.508;2023-08-17T12:25:30;57.25;46.48;63.78;;
72466;Laerm;60471;52.150;4.508;2023-08-17T12:27:59;56.43;48.49;62.91;;
72466;Laerm;60471;52.150;4.508;2023-08-17T12:30:31;57.04;47.48;65.27;;
72466;Laerm;60471;52.150;4.508;2023-08-17T12:32:59;56.93;45.56;65.61;;
72466;Laerm;60471;52.150;4.508;2023-08-17T12:35:26;55.46;45.51;65.68;;
72466;Laerm;60471;52.150;4.508;2023-08-17T12:37:53;55.19;45.88;62.94;;
72466;Laerm;60471;52.150;4.508;2023-08-17T12:40:20;58.74;46.78;73.13;;
72466;Laerm;60471;52.150;4.508;2023-08-17T12:42:47;57.54;47.04;65.56;;
72466;Laerm;60471;52.150;4.508;2023-08-17T12:45:14;58.81;47.86;73.46;;
72466;Laerm;60471;52.150;4.508;2023-08-17T12:47:41;55.85;45.75;63.67;;
72466;Laerm;60471;52.150;4.508;2023-08-17T12:50:08;56.39;43.01;66.18;;
72466;Laerm;60471;52.150;4.508;2023-08-17T12:52:35;55.16;45.27;63.84;;
72466;Laerm;60471;52.150;4.508;2023-08-17T12:55:01;54.60;45.82;63.19;;
72466;Laerm;60471;52.150;4.508;2023-08-17T12:57:28;56.47;45.01;69.34;;
72466;Laerm;60471;52.150;4.508;2023-08-17T12:59:54;57.03;46.96;63.52;;
72466;Laerm;60471;52.150;4.508;2023-08-17T13:02:21;55.44;46.44;64.69;;
72466;Laerm;60471;52.150;4.508;2023-08-17T13:04:47;55.99;45.31;63.00;;
72466;Laerm;60471;52.150;4.508;2023-08-17T13:07:14;54.98;43.04;63.46;;
72466;Laerm;60471;52.150;4.508;2023-08-17T13:09:41;55.79;45.57;63.96;;
72466;Laerm;60471;52.150;4.508;2023-08-17T13:12:08;56.37;44.32;63.49;;
72466;Laerm;60471;52.150;4.508;2023-08-17T13:14:34;56.14;46.67;64.31;;
72466;Laerm;60471;52.150;4.508;2023-08-17T13:17:00;55.29;43.52;68.62;;
72466;Laerm;60471;52.150;4.508;2023-08-17T13:19:26;58.99;45.97;70.09;;
72466;Laerm;60471;52.150;4.508;2023-08-17T13:21:53;55.27;44.78;62.87;;
72466;Laerm;60471;52.150;4.508;2023-08-17T13:24:19;56.35;46.44;63.73;;
72466;Laerm;60471;52.150;4.508;2023-08-17T13:26:45;55.34;46.60;62.44;;
72466;Laerm;60471;52.150;4.508;2023-08-17T13:29:11;55.32;44.96;63.49;;
72466;Laerm;60471;52.150;4.508;2023-08-17T13:31:37;56.96;45.91;65.54;;
72466;Laerm;60471;52.150;4.508;2023-08-17T13:34:04;55.85;43.89;64.33;;
72466;Laerm;60471;52.150;4.508;2023-08-17T13:36:30;58.15;45.73;67.76;;
72466;Laerm;60471;52.150;4.508;2023-08-17T13:38:56;57.44;47.71;68.05;;
72466;Laerm;60471;52.150;4.508;2023-08-17T13:41:22;54.34;43.81;63.09;;
72466;Laerm;60471;52.150;4.508;2023-08-17T13:43:51;57.00;48.85;64.78;;
72466;Laerm;60471;52.150;4.508;2023-08-17T13:46:17;55.70;44.94;64.15;;
72466;Laerm;60471;52.150;4.508;2023-08-17T13:48:43;56.29;45.88;64.47;;
72466;Laerm;60471;52.150;4.508;2023-08-17T13:51:09;58.09;49.29;67.30;;
72466;Laerm;60471;52.150;4.508;2023-08-17T13:53:37;54.67;43.96;65.67;;
72466;Laerm;60471;52.150;4.508;2023-08-17T13:56:03;56.38;45.55;65.82;;
72466;Laerm;60471;52.150;4.508;2023-08-17T13:58:30;56.23;44.54;64.77;;
72466;Laerm;60471;52.150;4.508;2023-08-17T14:00:56;58.12;49.27;68.28;;
72466;Laerm;60471;52.150;4.508;2023-08-17T14:03:25;56.67;44.87;65.19;;
72466;Laerm;60471;52.150;4.508;2023-08-17T14:05:52;55.98;45.84;64.05;;
72466;Laerm;60471;52.150;4.508;2023-08-17T14:08:18;56.04;44.44;65.37;;
72466;Laerm;60471;52.150;4.508;2023-08-17T14:10:44;55.88;47.49;63.22;;